createdAt,value
2023-08-08T00:01:45.905Z,12.49
2023-08-08T00:04:17.680Z,12.52
2023-08-08T00:06:49.402Z,12.54
2023-08-08T00:09:21.219Z,12.55
2023-08-08T00:11:52.919Z,12.58
2023-08-08T00:14:25.436Z,12.58
2023-08-08T00:16:57.224Z,12.59
2023-08-08T00:19:28.983Z,12.51
2023-08-08T00:22:00.776Z,12.46
2023-08-08T00:24:32.887Z,12.43
2023-08-08T00:27:04.913Z,12.27
2023-08-08T00:29:36.477Z,12.18
2023-08-08T00:32:08.215Z,12.18
2023-08-08T00:34:39.735Z,12.21
2023-08-08T00:37:11.454Z,12.31
2023-08-08T00:39:47.052Z,12.35
2023-08-08T00:42:18.695Z,12.33
2023-08-08T00:44:50.255Z,12.32
2023-08-08T00:47:22.436Z,12.24
2023-08-08T00:49:53.950Z,12.13
2023-08-08T00:52:26.557Z,12.04
2023-08-08T00:54:58.598Z,12.04
2023-08-08T00:57:30.250Z,12.12
2023-08-08T01:00:02.030Z,12.15
2023-08-08T01:02:33.860Z,12.18
2023-08-08T01:05:06.279Z,12.19
2023-08-08T01:08:00.254Z,12.28
2023-08-08T01:10:37.315Z,12.34
2023-08-08T01:13:18.236Z,12.35
2023-08-08T01:15:50.926Z,12.36
2023-08-08T01:18:23.014Z,12.38
2023-08-08T01:20:55.715Z,12.45
2023-08-08T01:23:35.657Z,12.49
2023-08-08T01:26:07.961Z,12.52
2023-08-08T01:28:40.570Z,12.55
2023-08-08T01:31:12.260Z,12.55
2023-08-08T01:33:43.903Z,12.57
2023-08-08T01:36:23.792Z,12.66
2023-08-08T01:39:00.907Z,12.73
2023-08-08T01:41:39.396Z,12.78
2023-08-08T01:44:11.954Z,12.78
2023-08-08T01:46:43.802Z,12.80
2023-08-08T01:49:15.450Z,12.83
2023-08-08T01:51:47.286Z,12.85
2023-08-08T01:54:19.719Z,12.84
2023-08-08T01:56:51.416Z,12.80
2023-08-08T01:59:23.648Z,12.75
2023-08-08T02:01:55.343Z,12.75
2023-08-08T02:04:27.032Z,12.72
2023-08-08T02:06:58.617Z,12.70
2023-08-08T02:09:30.186Z,12.66
2023-08-08T02:12:02.032Z,12.67
2023-08-08T02:14:33.780Z,12.63
2023-08-08T02:17:05.336Z,12.55
2023-08-08T02:19:36.856Z,12.56
2023-08-08T02:22:08.471Z,12.52
2023-08-08T02:24:40.183Z,12.50
2023-08-08T02:27:13.578Z,12.49
2023-08-08T02:29:45.113Z,12.50
2023-08-08T02:32:16.697Z,12.54
2023-08-08T02:34:48.586Z,12.67
2023-08-08T02:37:20.171Z,12.80
2023-08-08T02:39:51.909Z,12.82
2023-08-08T02:42:23.480Z,12.84
2023-08-08T02:44:55.057Z,12.83
2023-08-08T02:47:26.785Z,12.79
2023-08-08T02:49:58.465Z,12.78
2023-08-08T02:52:30.008Z,12.81
2023-08-08T02:55:03.184Z,12.85
2023-08-08T02:57:34.727Z,12.89
2023-08-08T03:00:07.206Z,12.94
2023-08-08T03:02:38.830Z,12.90
2023-08-08T03:05:10.536Z,12.83
2023-08-08T03:07:42.101Z,12.77
2023-08-08T03:10:14.014Z,12.72
2023-08-08T03:12:45.549Z,12.65
2023-08-08T03:15:17.190Z,12.56
2023-08-08T03:17:48.874Z,12.57
2023-08-08T03:20:20.680Z,12.57
2023-08-08T03:22:52.262Z,12.54
2023-08-08T03:25:23.877Z,12.57
2023-08-08T03:27:55.412Z,12.60
2023-08-08T03:30:26.958Z,12.64
2023-08-08T03:32:58.725Z,12.62
2023-08-08T03:35:30.345Z,12.53
2023-08-08T03:38:01.991Z,12.48
2023-08-08T03:40:34.001Z,12.47
2023-08-08T03:43:05.797Z,12.51
2023-08-08T03:45:37.538Z,12.51
2023-08-08T03:48:09.086Z,12.56
2023-08-08T03:50:40.643Z,12.62
2023-08-08T03:53:12.182Z,12.62
2023-08-08T03:55:43.714Z,12.58
2023-08-08T03:58:15.341Z,12.56
2023-08-08T04:00:47.677Z,12.54
2023-08-08T04:03:19.562Z,12.57
2023-08-08T04:05:51.247Z,12.60
2023-08-08T04:08:23.470Z,12.70
2023-08-08T04:10:55.666Z,12.77
2023-08-08T04:13:27.353Z,12.79
2023-08-08T04:15:58.953Z,12.82
2023-08-08T04:18:30.565Z,12.83
2023-08-08T04:21:02.114Z,12.79
2023-08-08T04:23:33.736Z,12.77
2023-08-08T04:26:05.271Z,12.80
2023-08-08T04:28:36.878Z,12.80
2023-08-08T04:31:08.505Z,12.86
2023-08-08T04:33:40.231Z,12.88
2023-08-08T04:36:11.726Z,12.92
2023-08-08T04:38:43.603Z,12.96
2023-08-08T04:41:15.260Z,12.93
2023-08-08T04:43:46.965Z,12.89
2023-08-08T04:46:18.680Z,12.92
2023-08-08T04:48:50.317Z,12.93
2023-08-08T04:51:21.947Z,13.01
2023-08-08T04:53:53.535Z,12.97
2023-08-08T04:56:25.223Z,13.03
2023-08-08T04:58:56.826Z,13.02
2023-08-08T05:01:29.736Z,13.04
2023-08-08T05:04:01.335Z,13.04
2023-08-08T05:06:33.288Z,13.26
2023-08-08T05:09:04.846Z,14.41
2023-08-08T05:11:37.124Z,15.30
2023-08-08T05:14:08.724Z,15.52
2023-08-08T05:16:40.437Z,14.71
2023-08-08T05:19:12.078Z,14.54
2023-08-08T05:21:44.115Z,13.88
2023-08-08T05:24:15.653Z,13.66
2023-08-08T05:26:47.291Z,14.85
2023-08-08T05:29:18.837Z,16.43
2023-08-08T05:31:50.604Z,15.25
2023-08-08T05:34:24.482Z,15.10
2023-08-08T05:37:10.258Z,15.71
2023-08-08T05:39:47.624Z,16.86
2023-08-08T05:42:19.599Z,15.68
2023-08-08T05:44:51.341Z,15.25
2023-08-08T05:47:22.866Z,15.06
2023-08-08T05:49:54.465Z,14.57
2023-08-08T05:52:26.040Z,14.31
2023-08-08T05:55:00.269Z,14.30
2023-08-08T05:57:31.869Z,16.02
2023-08-08T06:00:04.517Z,17.32
2023-08-08T06:02:36.222Z,18.00
2023-08-08T06:05:08.613Z,18.66
2023-08-08T06:07:40.410Z,19.47
2023-08-08T06:10:11.971Z,19.80
2023-08-08T06:12:43.655Z,19.34
2023-08-08T06:15:15.263Z,19.31
2023-08-08T06:17:46.888Z,19.07
2023-08-08T06:20:18.512Z,17.37
2023-08-08T06:22:50.173Z,16.53
2023-08-08T06:25:21.837Z,17.91
2023-08-08T06:27:53.486Z,18.32
2023-08-08T06:30:25.141Z,17.05
2023-08-08T06:32:56.881Z,15.59
2023-08-08T06:35:28.521Z,15.03
2023-08-08T06:38:00.095Z,14.78
2023-08-08T06:40:31.697Z,14.49
2023-08-08T06:43:03.292Z,14.46
2023-08-08T06:45:35.071Z,14.40
2023-08-08T06:48:07.172Z,14.35
2023-08-08T06:50:38.823Z,14.23
2023-08-08T06:53:10.415Z,14.22
2023-08-08T06:55:42.054Z,14.11
2023-08-08T06:58:13.686Z,13.90
2023-08-08T07:00:46.173Z,13.70
2023-08-08T07:03:18.050Z,13.51
2023-08-08T07:05:53.037Z,13.39
2023-08-08T07:08:24.997Z,13.29
2023-08-08T07:10:58.560Z,13.14
2023-08-08T07:13:30.132Z,13.10
2023-08-08T07:16:02.289Z,13.10
2023-08-08T07:18:34.242Z,13.08
2023-08-08T07:21:07.109Z,13.13
2023-08-08T07:23:38.775Z,13.17
2023-08-08T07:26:10.352Z,13.21
2023-08-08T07:28:42.004Z,13.26
2023-08-08T07:31:13.618Z,13.35
2023-08-08T07:33:45.164Z,13.50
2023-08-08T07:36:16.770Z,13.57
2023-08-08T07:38:48.295Z,13.65
2023-08-08T07:41:19.855Z,13.74
2023-08-08T07:43:51.380Z,13.71
2023-08-08T07:46:23.821Z,13.69
2023-08-08T07:48:55.352Z,13.63
2023-08-08T07:51:26.921Z,13.69
2023-08-08T07:53:59.255Z,13.70
2023-08-08T07:56:30.939Z,13.78
2023-08-08T07:59:02.800Z,13.84
2023-08-08T08:01:34.433Z,13.90
2023-08-08T08:04:06.102Z,14.00
2023-08-08T08:06:37.899Z,14.31
2023-08-08T08:09:09.900Z,14.59
2023-08-08T08:11:41.587Z,14.59
2023-08-08T08:14:13.337Z,14.50
2023-08-08T08:16:46.613Z,14.24
2023-08-08T08:19:18.280Z,13.87
2023-08-08T08:21:50.127Z,13.68
2023-08-08T08:24:21.814Z,13.54
2023-08-08T08:26:53.354Z,13.49
2023-08-08T08:29:25.004Z,13.42
2023-08-08T08:31:56.581Z,13.40
2023-08-08T08:34:28.147Z,13.44
2023-08-08T08:36:59.655Z,13.48
2023-08-08T08:39:31.216Z,13.30
2023-08-08T08:42:06.281Z,13.15
2023-08-08T08:44:38.705Z,13.13
2023-08-08T08:47:13.743Z,13.13
2023-08-08T08:49:46.735Z,13.14
2023-08-08T08:52:18.503Z,13.11
2023-08-08T08:54:52.324Z,13.19
2023-08-08T08:57:27.175Z,13.24
2023-08-08T08:59:59.533Z,13.25
2023-08-08T09:02:31.160Z,13.29
2023-08-08T09:05:04.956Z,13.42
2023-08-08T09:07:37.407Z,13.42
2023-08-08T09:10:09.021Z,13.39
2023-08-08T09:12:40.602Z,13.35
2023-08-08T09:15:13.112Z,13.52
2023-08-08T09:17:48.577Z,13.84
2023-08-08T09:20:21.158Z,14.30
2023-08-08T09:22:53.782Z,14.69
2023-08-08T09:25:26.971Z,15.22
2023-08-08T09:27:58.568Z,15.33
2023-08-08T09:30:32.205Z,15.57
2023-08-08T09:33:05.671Z,16.08
2023-08-08T09:35:40.224Z,18.42
2023-08-08T09:38:11.854Z,20.21
2023-08-08T09:40:43.562Z,20.98
2023-08-08T09:43:15.217Z,21.11
2023-08-08T09:45:49.038Z,19.96
2023-08-08T09:48:21.052Z,20.33
2023-08-08T09:50:52.604Z,20.18
2023-08-08T09:53:24.594Z,18.26
2023-08-08T09:55:57.411Z,18.32
2023-08-08T09:58:29.990Z,18.33
2023-08-08T10:01:02.101Z,18.20
2023-08-08T10:03:34.509Z,18.98
2023-08-08T10:06:06.521Z,19.26
2023-08-08T10:08:38.731Z,19.21
2023-08-08T10:11:12.775Z,19.82
2023-08-08T10:13:52.003Z,18.78
2023-08-08T10:16:24.301Z,18.99
2023-08-08T10:18:59.119Z,19.03
2023-08-08T10:21:41.816Z,18.82
2023-08-08T10:24:13.496Z,17.96
2023-08-08T10:26:55.241Z,17.28
2023-08-08T10:29:28.604Z,17.27
2023-08-08T10:32:05.482Z,17.09
2023-08-08T10:34:41.670Z,17.10
2023-08-08T10:37:15.901Z,17.89
2023-08-08T10:40:01.756Z,17.50
2023-08-08T10:42:34.643Z,17.03
2023-08-08T10:45:06.990Z,17.16
2023-08-08T10:47:39.169Z,16.73
2023-08-08T10:50:16.104Z,17.10
2023-08-08T10:52:51.148Z,17.43
2023-08-08T10:55:28.564Z,17.33
2023-08-08T10:58:06.644Z,17.04
2023-08-08T11:00:40.876Z,16.41
2023-08-08T11:03:12.792Z,15.68
2023-08-08T11:05:52.356Z,15.43
2023-08-08T11:08:24.588Z,16.09
2023-08-08T11:10:56.192Z,16.68
2023-08-08T11:13:28.002Z,16.88
2023-08-08T11:15:59.930Z,16.87
2023-08-08T11:18:31.867Z,16.89
2023-08-08T11:21:18.211Z,17.10
2023-08-08T11:23:50.569Z,17.77
2023-08-08T11:26:22.157Z,20.03
2023-08-08T11:28:54.327Z,21.21
2023-08-08T11:31:26.172Z,22.45
2023-08-08T11:34:00.215Z,23.21
2023-08-08T11:36:36.216Z,23.66
2023-08-08T11:39:10.249Z,23.37
2023-08-08T11:41:42.427Z,23.37
2023-08-08T11:44:14.554Z,23.41
2023-08-08T11:46:47.658Z,23.79
2023-08-08T11:49:19.670Z,23.84
2023-08-08T11:51:51.405Z,23.53
2023-08-08T11:54:23.011Z,23.84
2023-08-08T11:56:54.997Z,23.28
2023-08-08T11:59:26.781Z,22.33
2023-08-08T12:01:58.801Z,21.10
2023-08-08T12:04:30.745Z,21.83
2023-08-08T12:07:04.955Z,22.75
2023-08-08T12:09:38.105Z,23.03
2023-08-08T12:12:11.069Z,22.52
2023-08-08T12:14:51.788Z,21.58
2023-08-08T12:17:28.750Z,22.19
2023-08-08T12:20:01.316Z,22.22
2023-08-08T12:22:33.802Z,22.59
2023-08-08T12:25:06.178Z,22.94
2023-08-08T12:27:37.788Z,23.27
2023-08-08T12:30:09.892Z,23.21
2023-08-08T12:32:41.431Z,23.31
2023-08-08T12:35:13.248Z,23.27
2023-08-08T12:37:44.959Z,23.42
2023-08-08T12:40:16.572Z,23.67
2023-08-08T12:42:49.210Z,23.75
2023-08-08T12:45:20.822Z,23.45
2023-08-08T12:47:52.487Z,22.96
2023-08-08T12:50:24.603Z,23.19
2023-08-08T12:52:56.172Z,23.01
2023-08-08T12:55:27.800Z,22.73
2023-08-08T12:57:59.689Z,23.05
2023-08-08T13:00:31.454Z,22.48
2023-08-08T13:03:03.540Z,21.42
2023-08-08T13:05:35.238Z,20.55
2023-08-08T13:08:07.004Z,19.68
2023-08-08T13:10:38.630Z,18.80
2023-08-08T13:13:10.569Z,18.28
2023-08-08T13:15:42.217Z,17.79
2023-08-08T13:18:13.833Z,17.44
2023-08-08T13:20:45.450Z,17.25
2023-08-08T13:23:17.080Z,17.01
2023-08-08T13:25:50.200Z,16.87
2023-08-08T13:28:21.810Z,17.17
2023-08-08T13:30:53.406Z,17.17
2023-08-08T13:33:25.316Z,16.98
2023-08-08T13:35:56.877Z,16.66
2023-08-08T13:38:28.790Z,16.58
2023-08-08T13:41:01.421Z,16.40
2023-08-08T13:43:34.555Z,16.17
2023-08-08T13:46:08.962Z,16.32
2023-08-08T13:48:41.214Z,16.46
2023-08-08T13:51:12.886Z,16.64
2023-08-08T13:53:46.021Z,16.95
2023-08-08T13:56:18.563Z,17.06
2023-08-08T13:58:50.385Z,17.08
2023-08-08T14:01:22.343Z,18.15
2023-08-08T14:03:54.742Z,18.42
2023-08-08T14:06:26.601Z,18.20
2023-08-08T14:08:58.396Z,18.47
2023-08-08T14:11:30.053Z,18.82
2023-08-08T14:14:01.656Z,18.40
2023-08-08T14:16:33.819Z,18.71
2023-08-08T14:19:05.690Z,18.77
2023-08-08T14:21:37.285Z,19.11
2023-08-08T14:24:08.965Z,19.22
2023-08-08T14:26:40.541Z,19.29
2023-08-08T14:29:12.115Z,19.26
2023-08-08T14:31:58.848Z,19.14
2023-08-08T14:34:34.113Z,19.16
2023-08-08T14:37:05.875Z,19.02
2023-08-08T14:39:37.777Z,19.11
2023-08-08T14:42:09.506Z,19.15
2023-08-08T14:44:41.163Z,18.96
2023-08-08T14:47:12.969Z,18.90
2023-08-08T14:49:44.538Z,18.74
2023-08-08T14:52:16.972Z,17.94
2023-08-08T14:54:48.601Z,17.26
2023-08-08T14:57:20.290Z,16.73
2023-08-08T15:02:24.564Z,15.81
2023-08-08T15:04:58.236Z,15.58
2023-08-08T15:07:30.036Z,15.30
2023-08-08T15:10:01.679Z,15.10
2023-08-08T15:12:33.247Z,14.93
2023-08-08T15:15:06.606Z,14.90
2023-08-08T15:17:38.659Z,15.04
2023-08-08T15:20:12.196Z,15.37
2023-08-08T15:22:44.017Z,15.62
2023-08-08T15:25:16.005Z,15.65
2023-08-08T15:27:47.907Z,15.61
2023-08-08T15:30:19.526Z,15.52
2023-08-08T15:32:51.408Z,15.42
2023-08-08T15:35:23.125Z,15.42
2023-08-08T15:37:54.981Z,15.45
2023-08-08T15:40:27.266Z,15.45
2023-08-08T15:42:58.854Z,15.46
2023-08-08T15:45:30.562Z,15.49
2023-08-08T15:48:02.157Z,15.36
2023-08-08T15:50:33.935Z,15.28
2023-08-08T15:53:06.070Z,15.14
2023-08-08T15:55:38.289Z,14.89
2023-08-08T15:58:10.993Z,14.44
2023-08-08T16:00:42.721Z,14.02
2023-08-08T16:03:14.367Z,13.92
2023-08-08T16:05:45.980Z,14.06
2023-08-08T16:08:18.642Z,14.28
2023-08-08T16:10:51.061Z,14.58
2023-08-08T16:13:23.148Z,14.74
2023-08-08T16:15:54.785Z,14.96
2023-08-08T16:18:26.380Z,14.90
2023-08-08T16:20:57.999Z,14.91
2023-08-08T16:23:29.631Z,14.98
2023-08-08T16:26:01.253Z,15.04
2023-08-08T16:28:33.455Z,15.08
2023-08-08T16:31:05.262Z,15.18
2023-08-08T16:33:37.020Z,15.18
2023-08-08T16:36:08.963Z,15.14
2023-08-08T16:38:40.601Z,15.29
2023-08-08T16:41:12.242Z,15.47
2023-08-08T16:43:44.039Z,15.44
2023-08-08T16:46:15.802Z,15.30
2023-08-08T16:48:47.681Z,15.35
2023-08-08T16:51:19.862Z,15.37
2023-08-08T16:53:51.823Z,15.27
2023-08-08T16:56:23.459Z,15.27
2023-08-08T16:58:55.106Z,15.25
2023-08-08T17:01:27.148Z,15.24
2023-08-08T17:03:58.767Z,15.30
2023-08-08T17:06:32.023Z,15.26
2023-08-08T17:09:03.830Z,15.27
2023-08-08T17:11:35.639Z,15.25
2023-08-08T17:14:09.651Z,15.28
2023-08-08T17:16:41.704Z,15.09
2023-08-08T17:19:13.352Z,15.05
2023-08-08T17:21:45.025Z,14.96
2023-08-08T17:24:17.917Z,14.90
2023-08-08T17:26:49.780Z,14.83
2023-08-08T17:29:21.392Z,14.75
2023-08-08T17:31:53.029Z,14.76
2023-08-08T17:34:24.693Z,14.75
2023-08-08T17:36:56.436Z,14.68
2023-08-08T17:39:28.035Z,14.54
2023-08-08T17:42:00.226Z,14.38
2023-08-08T17:44:32.612Z,14.33
2023-08-08T17:47:04.753Z,14.23
2023-08-08T17:49:46.820Z,14.28
2023-08-08T17:52:19.076Z,14.39
2023-08-08T17:54:50.647Z,14.51
2023-08-08T17:57:22.304Z,14.52
2023-08-08T17:59:53.870Z,14.46
2023-08-08T18:02:26.465Z,14.44
2023-08-08T18:04:58.058Z,14.40
2023-08-08T18:07:29.795Z,14.37
2023-08-08T18:10:01.508Z,14.36
2023-08-08T18:12:33.245Z,14.41
2023-08-08T18:15:05.204Z,14.45
2023-08-08T18:17:36.868Z,14.44
2023-08-08T18:20:10.468Z,14.47
2023-08-08T18:22:42.133Z,14.48
2023-08-08T18:25:14.402Z,14.46
2023-08-08T18:27:46.596Z,14.46
2023-08-08T18:30:19.125Z,14.41
2023-08-08T18:32:51.682Z,14.37
2023-08-08T18:35:23.677Z,14.39
2023-08-08T18:37:55.291Z,14.43
2023-08-08T18:40:26.933Z,14.39
2023-08-08T18:42:58.533Z,14.27
2023-08-08T18:45:30.498Z,14.28
2023-08-08T18:48:02.221Z,14.22
2023-08-08T18:50:34.130Z,14.20
2023-08-08T18:53:07.259Z,14.18
2023-08-08T18:55:38.970Z,14.21
2023-08-08T18:58:10.709Z,14.19
2023-08-08T19:00:42.429Z,14.18
2023-08-08T19:03:15.399Z,14.23
2023-08-08T19:05:47.218Z,14.25
2023-08-08T19:08:18.910Z,14.26
2023-08-08T19:10:50.746Z,14.27
2023-08-08T19:13:22.536Z,14.26
2023-08-08T19:15:54.305Z,14.22
2023-08-08T19:18:26.128Z,14.22
2023-08-08T19:20:57.891Z,14.22
2023-08-08T19:23:29.708Z,14.21
2023-08-08T19:26:02.399Z,14.25
2023-08-08T19:28:34.128Z,14.21
2023-08-08T19:31:05.909Z,14.15
2023-08-08T19:33:38.409Z,14.00
2023-08-08T19:36:11.385Z,13.87
2023-08-08T19:38:42.943Z,13.71
2023-08-08T19:41:14.613Z,13.64
2023-08-08T19:43:46.354Z,13.63
2023-08-08T19:46:18.064Z,13.57
2023-08-08T19:48:49.895Z,13.56
2023-08-08T19:51:21.973Z,13.50
2023-08-08T19:53:53.643Z,13.49
2023-08-08T19:56:25.332Z,13.44
2023-08-08T19:58:57.085Z,13.42
2023-08-08T20:01:29.862Z,13.40
2023-08-08T20:04:01.886Z,13.37
2023-08-08T20:06:33.664Z,13.33
2023-08-08T20:09:05.548Z,13.31
2023-08-08T20:11:38.926Z,13.26
2023-08-08T20:14:11.145Z,13.21
2023-08-08T20:16:43.020Z,13.18
2023-08-08T20:19:20.063Z,13.13
2023-08-08T20:21:51.888Z,13.15
2023-08-08T20:24:23.547Z,13.16
2023-08-08T20:26:55.410Z,13.15
2023-08-08T20:29:27.272Z,13.17
2023-08-08T20:31:58.863Z,13.17
2023-08-08T20:34:31.606Z,13.13
2023-08-08T20:37:04.901Z,13.14
2023-08-08T20:39:36.809Z,13.18
2023-08-08T20:42:08.449Z,13.12
2023-08-08T20:44:40.019Z,13.13
2023-08-08T20:47:11.663Z,13.10
2023-08-08T20:49:43.299Z,13.08
2023-08-08T20:52:14.810Z,13.04
2023-08-08T20:54:46.427Z,13.02
2023-08-08T20:57:18.153Z,12.98
2023-08-08T20:59:49.740Z,12.87
2023-08-08T21:02:21.473Z,12.77
2023-08-08T21:04:53.371Z,12.67
2023-08-08T21:07:25.324Z,12.55
2023-08-08T21:09:56.865Z,12.47
2023-08-08T21:12:28.469Z,12.48
2023-08-08T21:15:01.212Z,12.48
2023-08-08T21:17:33.404Z,12.47
2023-08-08T21:20:05.763Z,12.47
2023-08-08T21:22:37.357Z,12.50
2023-08-08T21:25:09.429Z,12.51
2023-08-08T21:27:41.889Z,12.49
2023-08-08T21:30:13.596Z,12.47
2023-08-08T21:32:45.356Z,12.37
2023-08-08T21:35:16.965Z,12.27
2023-08-08T21:37:48.649Z,12.16
2023-08-08T21:40:20.322Z,12.05
2023-08-08T21:42:52.900Z,11.97
2023-08-08T21:45:24.696Z,11.90
2023-08-08T21:47:58.788Z,11.88
2023-08-08T21:50:31.468Z,11.82
2023-08-08T21:53:03.197Z,11.77
2023-08-08T21:55:35.046Z,11.73
2023-08-08T21:58:07.188Z,11.73
2023-08-08T22:00:39.223Z,11.72
2023-08-08T22:03:10.845Z,11.73
2023-08-08T22:05:42.706Z,11.71
2023-08-08T22:08:14.330Z,11.72
2023-08-08T22:10:45.982Z,11.69
2023-08-08T22:13:17.629Z,11.65
2023-08-08T22:15:49.288Z,11.65
2023-08-08T22:18:21.794Z,11.66
2023-08-08T22:20:53.668Z,11.68
2023-08-08T22:23:25.326Z,11.69
2023-08-08T22:25:56.934Z,11.70
2023-08-08T22:28:28.672Z,11.67
2023-08-08T22:31:00.231Z,11.65
2023-08-08T22:33:31.863Z,11.62
2023-08-08T22:36:03.720Z,11.57
2023-08-08T22:38:35.373Z,11.56
2023-08-08T22:41:06.966Z,11.55
2023-08-08T22:43:38.728Z,11.52
2023-08-08T22:46:10.340Z,11.49
2023-08-08T22:48:41.962Z,11.43
2023-08-08T22:51:13.514Z,11.37
2023-08-08T22:53:45.179Z,11.29
2023-08-08T22:56:16.824Z,11.21
2023-08-08T22:58:48.462Z,11.18
2023-08-08T23:01:20.013Z,11.18
2023-08-08T23:03:51.703Z,11.14
2023-08-08T23:06:23.297Z,11.16
2023-08-08T23:08:54.917Z,11.17
2023-08-08T23:11:26.459Z,11.13
2023-08-08T23:13:58.033Z,11.10
2023-08-08T23:16:29.564Z,11.08
2023-08-08T23:19:01.234Z,11.05
2023-08-08T23:21:32.824Z,11.03
2023-08-08T23:24:04.662Z,11.00
2023-08-08T23:26:39.684Z,10.96
2023-08-08T23:29:11.294Z,10.97
2023-08-08T23:31:42.898Z,10.99
2023-08-08T23:34:14.518Z,10.97
2023-08-08T23:36:46.153Z,10.98
2023-08-08T23:39:17.738Z,10.93
2023-08-08T23:41:49.428Z,10.91
2023-08-08T23:44:21.259Z,10.87
2023-08-08T23:46:52.837Z,10.87
2023-08-08T23:49:24.460Z,10.85
2023-08-08T23:51:56.089Z,10.85
2023-08-08T23:54:27.669Z,10.85
2023-08-08T23:56:59.264Z,10.83
2023-08-08T23:59:30.901Z,10.81
